Llano, TX

7:12 PM CST on March 01, 2015 (GMT -0600)
Llano | Change Station
CLOSE
Current Station
Airport
Location: Llano,
Elevation: 1102 ft
Nearby Weather Stations

Elev 1102 ft 30.79 °N, 98.66 °W | Updated 17 minutes ago

Overcast
Overcast
41 °F
Feels Like 36 °F
N
7
Wind Variable Wind from NNE

Today
High -- | Low -- °F
--% Chance of Precip.
Yesterday
High -- | Low -- °F
Precip. -- in
7:00 AM 6:32 PM
Waxing Gibbous, 88% visible
Pressure 30.32 in
Visibility 5.0 miles
Clouds Overcast 500 ft
Windchill 36 °F
Dew Point 39 °F
Humidity 93%
Rainfall 0.00 in
Snow Depth Not available.
UV 0 out of 12
Pollen 8.10 out of 12
Air Quality Not available.
Flu Activity Not available.
METAR KAQO 020055Z AUTO 03006KT 5SM BR OVC005 05/04 A3032 RMK AO2

More Conditions Fewer Conditions

Pressure 30.32 in
Visibility 5.0 miles
Clouds Overcast 500 ft
Windchill 36 °F
Dew Point 39 °F
Humidity 93%
Rainfall 0.00 in
Snow Depth Not available.
UV 0 out of 12
Pollen 8.10 out of 12
Air Quality Not available.
Flu Activity Not available.
METAR KAQO 020055Z AUTO 03006KT 5SM BR OVC005 05/04 A3032 RMK AO2

More Conditions Fewer Conditions

Nowcast | as of 4:08 PM CST on March 1, 2015

Areas of light rain and drizzle continue to move north this afternoon and impact locations along and east of the i35 corridor. The thicker drizzle and rain patches may result in brief visibility reductions down to a couple miles.

×

10-Day Weather Forecast

Almanac

Astronomy

Mar. 01, 2015 Rise Set
Actual Time
Civil Twilight
Nautical Twilight
Astronomical Twilight
Moon
Length of Visible Light
Length of Day
Tomorrow will be .
, % of the Moon is Illuminated

Today's Extremes

State Highs State Lows

Community

WunderPhotos

Upload Photos

1,801,670 photos uploaded!

WunderBlogs® & News

Nearby

Air Quality

  Air Quality AQ Index Pollutant
Not available.

Snow Depth

Station Depth Elevation

Earthquake Activity

City Distance Mag. Time & Date
Minimum magnitude displayed is 2.5.

Coastal Water Temperatures

Place Temperature

Nearby Weather Stations